Aberdeen, Pennsylvania
Current Conditions -  °F | °C
As of 3:56 AM on Tuesday 21 Oct 2014 (Local Time) from KMDT Reporting Station
Overcast Overcast  
Wind Chill: 52°   Ceiling: 8000
Heat Index: 52°   Visibility: 8mi
Dew Point: 51°   Wind: 3mph
Humidity: 97%   Direction: 30°NNE
Pressure: 29.85"   Gusts: NA
Location:  40.1674°N, 76.6045°W
Report Text: KMDT 210756Z 03003KT 8SM OVC080 11/11 A2985 RMK AO2 RAB09E18 SLP110 P0000 T01110106
Loading
Personal Weather Stations






























Interactive Weather Map
Tropical Storm Tracking
New forecast layout! Learn more

10-Day Weather Forecast

Advertisements
Track Severe Weather on mobile